createdAt,value
2023-05-06T00:00:03.193Z,30.4
2023-05-06T00:10:02.862Z,30.4
2023-05-06T00:20:02.634Z,30.4
2023-05-06T00:30:02.292Z,30.4
2023-05-06T00:40:02.921Z,30.5
2023-05-06T00:50:02.693Z,30.5
2023-05-06T01:00:02.475Z,30.5
2023-05-06T01:10:03.138Z,30.6
2023-05-06T01:20:03.100Z,30.7
2023-05-06T01:30:02.912Z,30.7
2023-05-06T01:40:02.631Z,30.8
2023-05-06T01:50:02.473Z,30.8
2023-05-06T02:00:03.216Z,30.9
2023-05-06T02:10:02.945Z,31
2023-05-06T02:20:02.847Z,31.1
2023-05-06T02:30:02.543Z,31
2023-05-06T02:40:03.161Z,31.2
2023-05-06T02:50:02.963Z,31.2
2023-05-06T03:00:02.583Z,31.2
2023-05-06T03:10:02.267Z,31.2
2023-05-06T03:20:03.133Z,31.4
2023-05-06T03:30:02.895Z,31.5
2023-05-06T03:40:02.522Z,31.6
2023-05-06T03:50:02.361Z,31.4
2023-05-06T04:00:03.245Z,31.6
2023-05-06T04:10:02.981Z,31.6
2023-05-06T04:20:02.890Z,31.6
2023-05-06T04:30:02.516Z,31.6
2023-05-06T04:40:03.230Z,31.8
2023-05-06T04:50:02.803Z,31.8
2023-05-06T05:00:02.507Z,31.8
2023-05-06T05:10:03.293Z,31.7
2023-05-06T05:20:03.102Z,31.8
2023-05-06T05:30:02.726Z,31.9
2023-05-06T05:40:02.364Z,31.9
2023-05-06T05:50:03.057Z,31.9
2023-05-06T06:00:02.724Z,31.6
2023-05-06T06:10:02.581Z,31.7
2023-05-06T06:20:02.377Z,31.8
2023-05-06T06:30:03.024Z,31.6
2023-05-06T06:40:02.808Z,31.8
2023-05-06T06:50:02.496Z,31.7
2023-05-06T07:00:03.145Z,31.8
2023-05-06T07:10:02.828Z,31.7
2023-05-06T07:20:02.631Z,31.9
2023-05-06T07:30:02.237Z,32
2023-05-06T07:40:03.168Z,32.1
2023-05-06T07:50:02.835Z,32
2023-05-06T08:00:02.652Z,32
2023-05-06T08:10:02.353Z,32
2023-05-06T08:20:03.257Z,32.1
2023-05-06T08:30:03.064Z,32.1
2023-05-06T08:40:02.728Z,31.9
2023-05-06T08:50:02.671Z,32.1
2023-05-06T09:00:02.466Z,31.9
2023-05-06T09:10:03.203Z,31.9
2023-05-06T09:20:03.050Z,31.9
2023-05-06T09:30:02.915Z,31.9
2023-05-06T09:40:02.613Z,31.8
2023-05-06T09:50:02.292Z,31.8
2023-05-06T10:00:03.062Z,31.8
2023-05-06T10:10:02.810Z,31.6
2023-05-06T10:20:02.804Z,31.6
2023-05-06T10:30:02.694Z,31.6
2023-05-06T10:40:02.479Z,31.4
2023-05-06T10:50:03.155Z,31.4
2023-05-06T11:00:02.883Z,31.2
2023-05-06T11:10:02.536Z,31.2
2023-05-06T11:20:02.417Z,31.1
2023-05-06T11:30:03.366Z,31.1
2023-05-06T11:40:03.125Z,31
2023-05-06T11:50:02.925Z,31
2023-05-06T12:00:02.686Z,30.9
2023-05-06T12:10:02.435Z,31
2023-05-06T12:20:02.272Z,31
2023-05-06T12:30:03.011Z,31.1
2023-05-06T12:40:02.785Z,31
2023-05-06T12:50:02.498Z,31
2023-05-06T13:00:02.265Z,30.9
2023-05-06T13:10:03.217Z,31
2023-05-06T13:20:04.528Z,30.9
2023-05-06T13:30:03.044Z,30.9
2023-05-06T13:40:02.691Z,30.9
2023-05-06T13:50:02.431Z,30.9
2023-05-06T14:00:03.197Z,30.9
2023-05-06T14:10:02.351Z,30.8
2023-05-06T14:20:02.358Z,30.8
2023-05-06T14:30:03.166Z,30.8
2023-05-06T14:40:03.199Z,30.8
2023-05-06T14:50:02.846Z,30.8
2023-05-06T15:00:02.749Z,30.8
2023-05-06T15:10:02.529Z,30.8
2023-05-06T15:20:02.477Z,30.8
2023-05-06T15:30:03.279Z,30.8
2023-05-06T15:40:03.136Z,30.7
2023-05-06T15:50:03.607Z,30.8
2023-05-06T16:00:03.030Z,30.6
2023-05-06T16:10:02.682Z,30.6
2023-05-06T16:20:02.471Z,30.6
2023-05-06T16:30:03.240Z,30.7
2023-05-06T16:40:02.900Z,30.6
2023-05-06T16:50:02.581Z,30.6
2023-05-06T17:00:02.377Z,30.7
2023-05-06T17:10:03.173Z,30.6
2023-05-06T17:20:02.335Z,30.6
2023-05-06T17:30:02.973Z,30.6
2023-05-06T17:40:03.003Z,30.6
2023-05-06T17:50:03.266Z,30.4
2023-05-06T18:00:02.901Z,30.5
2023-05-06T18:10:02.745Z,30.5
2023-05-06T18:20:02.615Z,30.6
2023-05-06T18:30:02.282Z,30.5
2023-05-06T18:40:02.919Z,30.4
2023-05-06T18:50:02.629Z,30.2
2023-05-06T19:00:02.237Z,30
2023-05-06T19:10:03.235Z,29.8
2023-05-06T19:20:03.333Z,29.8
2023-05-06T19:30:03.111Z,29.8
2023-05-06T19:40:02.768Z,30.3
2023-05-06T19:50:02.485Z,30.3
2023-05-06T20:00:03.162Z,30.3
2023-05-06T20:10:03.155Z,30.4
2023-05-06T20:20:04.820Z,30.3
2023-05-06T20:30:02.588Z,30.3
2023-05-06T20:40:02.304Z,30.3
2023-05-06T20:50:03.478Z,30.3
2023-05-06T21:00:03.188Z,30.3
2023-05-06T21:10:02.913Z,30.3
2023-05-06T21:20:04.266Z,30.4
2023-05-06T21:30:02.686Z,30.4
2023-05-06T21:40:02.523Z,30.4
2023-05-06T21:50:07.338Z,30.3
2023-05-06T22:00:08.088Z,30.4
2023-05-06T22:10:02.912Z,30.3
2023-05-06T22:20:02.902Z,30.3
2023-05-06T22:30:03.079Z,30.3
2023-05-06T22:40:02.841Z,30.3
2023-05-06T22:50:02.688Z,30.3
2023-05-06T23:00:02.414Z,30.3
2023-05-06T23:10:03.177Z,30.4
2023-05-06T23:20:02.930Z,30.4
2023-05-06T23:30:02.361Z,30.4
2023-05-06T23:40:02.952Z,30.4
2023-05-06T23:50:02.736Z,30.5
